Time;durP1;ratioP1;P1;durP2;ratioP2;P2;SDS_P1;SDS_P2;PMS_P1;PMS_P2;Temp;Humidity;BMP_temperature;BMP_pressure;BME280_temperature;BME280_humidity;BME280_pressure;Samples;Min_cycle;Max_cycle;Signal;HPM_P1;HPM_P2
2023/05/11 00:02:12;;;;;;;;;11.67;9.00;;;;;23.05;44.46;100997.25;5071985;27;45430;-83
2023/05/11 00:04:37;;;;;;;;;8.25;6.75;;;;;23.06;44.69;101001.63;5049899;28;46615;-82
2023/05/11 00:07:03;;;;;;;;;6.25;6.25;;;;;23.06;44.97;100992.78;5050825;28;45707;-83
2023/05/11 00:09:28;;;;;;;;;9.25;7.75;;;;;23.05;44.55;100991.91;5073383;27;57622;-82
2023/05/11 00:11:53;;;;;;;;;6.50;5.75;;;;;23.05;44.89;100985.72;5066885;27;46147;-83
2023/05/11 00:14:19;;;;;;;;;9.50;8.00;;;;;23.02;44.83;100981.44;5069957;28;61645;-83
2023/05/11 00:16:44;;;;;;;;;8.00;6.25;;;;;;;;5064827;28;45740;-83
2023/05/11 00:19:09;;;;;;;;;6.50;5.75;;;;;23.03;45.13;100983.13;5070917;27;46007;-82
2023/05/11 00:21:35;;;;;;;;;8.25;7.00;;;;;23.03;44.64;100976.94;5088443;27;56491;-83
2023/05/11 00:24:00;;;;;;;;;5.25;5.25;;;;;23.06;44.85;100982.09;5075269;28;45477;-84
2023/05/11 00:26:26;;;;;;;;;6.00;5.25;;;;;23.03;44.88;100972.44;5067004;27;45343;-83
2023/05/11 00:28:51;;;;;;;;;6.25;6.25;;;;;;;;5066913;27;58216;-83
2023/05/11 00:31:16;;;;;;;;;7.33;6.00;;;;;23.06;44.48;100980.28;5071666;27;45685;-84
2023/05/11 00:33:41;;;;;;;;;9.00;6.75;;;;;23.05;44.72;100964.38;5064822;27;65082;-83
2023/05/11 00:36:07;;;;;;;;;8.75;6.50;;;;;23.02;44.73;100962.75;5066291;28;72830;-84
2023/05/11 00:38:33;;;;;;;;;6.75;5.25;;;;;23.02;44.77;100964.56;5067580;28;45315;-83
2023/05/11 00:40:58;;;;;;;;;5.75;5.75;;;;;23.05;45.01;100973.22;5073552;27;46600;-84
2023/05/11 00:43:24;;;;;;;;;7.50;6.25;;;;;23.02;44.81;100962.75;5082741;27;74121;-83
2023/05/11 00:45:51;;;;;;;;;5.50;5.50;;;;;;;;5064302;27;45644;-84
2023/05/11 00:48:16;;;;;;;;;6.00;4.25;;;;;23.05;45.04;100967.88;5062388;27;46307;-84
2023/05/11 00:50:42;;;;;;;;;5.75;4.50;;;;;23.03;44.58;100971.59;5068705;27;67564;-83
2023/05/11 00:53:07;;;;;;;;;7.25;4.50;;;;;23.06;44.51;100971.41;5063304;28;46008;-83
2023/05/11 00:55:33;;;;;;;;;6.25;5.75;;;;;22.98;44.54;100953.25;5070331;28;45593;-83
2023/05/11 00:57:59;;;;;;;;;6.00;4.25;;;;;;;;5071381;27;60266;-84
2023/05/11 01:00:24;;;;;;;;;6.00;4.00;;;;;23.00;44.95;100964.69;5061810;28;45502;-83
2023/05/11 01:02:50;;;;;;;;;5.25;4.25;;;;;23.05;44.97;100972.38;5083582;27;46473;-84
2023/05/11 01:05:15;;;;;;;;;4.25;4.25;;;;;23.06;44.79;100964.25;5057055;27;45290;-83
2023/05/11 01:07:49;;;;;;;;;5.25;5.00;;;;;23.02;44.55;100949.41;5074193;28;61233;-84
2023/05/11 01:10:33;;;;;;;;;5.00;3.50;;;;;23.05;44.49;100964.38;5068376;27;45459;-84
2023/05/11 01:13:40;;;;;;;;;4.50;4.50;;;;;23.06;44.63;100963.41;5069711;28;46603;-84
2023/05/11 01:16:12;;;;;;;;;4.00;4.00;;;;;23.05;45.07;100959.03;5059045;27;45271;-82
2023/05/11 01:18:39;;;;;;;;;5.00;4.25;;;;;;;;5073155;28;45433;-84
2023/05/11 01:21:05;;;;;;;;;7.25;4.50;;;;;23.03;45.09;100947.59;5070753;27;45832;-83
2023/05/11 01:23:53;;;;;;;;;5.00;4.25;;;;;23.06;44.91;100964.25;5074211;27;58400;-84
2023/05/11 01:26:43;;;;;;;;;7.50;5.00;;;;;23.07;44.56;100962.41;5077583;27;46018;-87
2023/05/11 01:29:49;;;;;;;;;5.00;3.75;;;;;23.07;44.88;100957.09;5063955;28;45500;-83
2023/05/11 01:32:26;;;;;;;;;5.25;4.25;;;;;23.02;44.98;100956.53;5056206;28;45349;-85
2023/05/11 01:35:00;;;;;;;;;3.00;3.00;;;;;23.05;44.87;100959.03;5074234;27;47265;-85
2023/05/11 01:37:26;;;;;;;;;3.50;2.25;;;;;23.06;44.88;100963.41;5062375;28;45940;-86
2023/05/11 01:39:55;;;;;;;;;3.50;3.25;;;;;23.05;44.59;100962.53;5060120;28;61209;-85
2023/05/11 01:42:25;;;;;;;;;6.75;5.00;;;;;23.03;44.81;100956.44;5057252;27;46041;-84
2023/05/11 01:44:52;;;;;;;;;3.25;3.25;;;;;;;;5063895;27;45439;-83
2023/05/11 01:47:20;;;;;;;;;3.75;3.25;;;;;23.06;44.51;100961.59;5067326;28;45334;-83
2023/05/11 01:49:46;;;;;;;;;3.50;3.00;;;;;23.06;44.64;100966.91;5067624;27;45524;-82
2023/05/11 01:52:12;;;;;;;;;4.25;4.00;;;;;23.07;44.35;100962.41;5075025;27;46378;-84
2023/05/11 01:54:39;;;;;;;;;3.50;3.25;;;;;23.08;44.95;100966.81;5067924;28;45390;-84
2023/05/11 01:57:06;;;;;;;;;5.00;5.00;;;;;23.05;44.50;100962.53;5064784;27;45613;-84
2023/05/11 01:59:32;;;;;;;;;5.00;3.25;;;;;23.06;44.93;100960.75;5065077;27;45477;-84
2023/05/11 02:01:58;;;;;;;;;2.25;2.25;;;;;23.07;44.52;100965.09;5072245;27;45438;-84
2023/05/11 02:04:24;;;;;;;;;4.00;2.75;;;;;23.06;44.83;100964.25;5060924;28;72618;-84
2023/05/11 02:06:50;;;;;;;;;4.50;4.50;;;;;23.06;44.78;100964.25;5064847;27;72066;-83
2023/05/11 02:09:16;;;;;;;;;1.25;1.25;;;;;23.08;44.63;100969.47;5063906;28;45639;-83
2023/05/11 02:11:42;;;;;;;;;2.25;1.25;;;;;23.06;44.89;100966.06;5058655;28;47971;-84
2023/05/11 02:14:09;;;;;;;;;3.00;2.25;;;;;23.06;44.51;100968.75;5062246;28;45779;-83
2023/05/11 02:16:34;;;;;;;;;2.25;2.25;;;;;23.06;44.73;100972.25;5073592;27;45347;-84
2023/05/11 02:19:00;;;;;;;;;3.00;2.75;;;;;23.08;44.40;100972.16;5048895;28;52205;-84
2023/05/11 02:21:26;;;;;;;;;3.50;3.25;;;;;;;;5069157;27;45631;-84
2023/05/11 02:23:53;;;;;;;;;3.25;3.00;;;;;23.07;44.69;100971.31;5064735;27;47947;-83
2023/05/11 02:26:18;;;;;;;;;2.00;2.00;;;;;23.09;44.25;100976.53;5077916;27;47025;-84
2023/05/11 02:28:43;;;;;;;;;5.00;2.25;;;;;23.07;44.50;100984.66;5075272;28;55500;-84
2023/05/11 02:31:14;;;;;;;;;3.50;2.75;;;;;23.09;44.59;100985.38;5069954;27;68836;-82
2023/05/11 02:33:43;;;;;;;;;2.50;2.25;;;;;23.06;44.38;100979.44;5085917;27;46357;-83
2023/05/11 02:36:09;;;;;;;;;1.75;1.75;;;;;23.07;44.86;100981.09;5058168;28;46084;-83
2023/05/11 02:38:36;;;;;;;;;1.75;1.25;;;;;23.09;44.64;100976.53;5054679;28;45706;-82
2023/05/11 02:41:05;;;;;;;;;2.50;2.25;;;;;23.06;44.75;100968.75;5075457;27;68780;-82
2023/05/11 02:43:34;;;;;;;;;3.00;2.00;;;;;23.08;44.86;100983.66;5070209;28;45389;-82
2023/05/11 02:46:09;;;;;;;;;4.00;2.00;;;;;23.09;44.32;100977.38;5062387;27;45814;-82
2023/05/11 02:48:39;;;;;;;;;4.00;2.50;;;;;23.08;44.49;100975.66;5074438;28;45548;-82
2023/05/11 02:51:06;;;;;;;;;3.00;1.25;;;;;23.09;44.46;100982.72;5073430;27;45451;-82
2023/05/11 02:53:33;;;;;;;;;2.25;2.00;;;;;23.05;44.65;100970.53;5074013;28;46568;-85
2023/05/11 02:55:59;;;;;;;;;1.25;1.25;;;;;23.06;44.54;100969.59;5086147;27;70530;-84
2023/05/11 02:58:25;;;;;;;;;3.50;2.00;;;;;23.08;44.37;100969.47;5072039;27;45611;-85
2023/05/11 03:00:50;;;;;;;;;1.25;1.25;;;;;23.08;44.86;100964.13;5067133;27;45565;-85
2023/05/11 03:03:16;;;;;;;;;1.50;1.50;;;;;23.07;44.31;100959.75;5076488;28;47447;-84
2023/05/11 03:05:41;;;;;;;;;3.00;1.50;;;;;23.09;44.82;100972.03;5072872;28;45357;-83
2023/05/11 03:08:07;;;;;;;;;2.00;2.00;;;;;23.09;44.60;100973.88;5068566;27;66377;-84
2023/05/11 03:10:33;;;;;;;;;2.00;2.00;;;;;23.09;44.38;100965.84;5063467;27;45422;-83
2023/05/11 03:12:59;;;;;;;;;1.25;1.25;;;;;23.06;44.48;100964.25;5064834;27;45730;-84
2023/05/11 03:15:24;;;;;;;;;1.25;1.25;;;;;23.07;44.44;100971.31;5069253;28;63728;-84
2023/05/11 03:17:50;;;;;;;;;0.25;0.25;;;;;23.08;44.34;100969.47;5067005;28;69491;-84
2023/05/11 03:20:16;;;;;;;;;1.50;1.50;;;;;23.10;44.68;100970.22;5062500;28;56152;-83
2023/05/11 03:22:43;;;;;;;;;1.75;0.25;;;;;23.08;44.51;100970.31;5055773;28;65522;-83
2023/05/11 03:25:08;;;;;;;;;2.50;1.50;;;;;23.06;44.32;100956.25;5063095;28;59993;-83
2023/05/11 03:27:35;;;;;;;;;2.25;2.25;;;;;23.07;44.30;100965.97;5075087;28;46830;-83
2023/05/11 03:30:02;;;;;;;;;1.00;1.00;;;;;23.08;44.61;100964.13;5054033;28;45896;-82
2023/05/11 03:32:28;;;;;;;;;1.75;1.25;;;;;23.07;44.43;100954.41;5074173;27;45407;-83
2023/05/11 03:34:53;;;;;;;;;2.00;1.00;;;;;23.08;44.75;100962.31;5063941;28;45786;-84
2023/05/11 03:37:19;;;;;;;;;2.75;1.25;;;;;23.10;43.79;100962.19;5069226;28;45605;-83
2023/05/11 03:39:47;;;;;;;;;2.00;0.75;;;;;23.05;44.74;100959.88;5060314;28;45329;-83
2023/05/11 03:42:16;;;;;;;;;3.50;0.25;;;;;23.06;44.54;100958.06;5056259;28;47294;-84
2023/05/11 03:44:44;;;;;;;;;0.25;0.00;;;;;23.07;44.11;100967.75;5055260;28;46652;-85
2023/05/11 03:47:11;;;;;;;;;2.25;2.25;;;;;23.08;44.36;100967.66;5058744;28;45544;-85
2023/05/11 03:49:37;;;;;;;;;1.25;1.25;;;;;23.08;44.34;100964.13;5051421;28;45827;-86
2023/05/11 03:52:04;;;;;;;;;2.25;0.50;;;;;23.07;44.80;100967.75;5067701;27;46354;-85
2023/05/11 03:54:30;;;;;;;;;2.50;0.25;;;;;23.08;44.62;100966.81;5047912;28;46042;-85
2023/05/11 03:56:55;;;;;;;;;1.00;1.00;;;;;23.07;44.57;100957.09;5073362;27;45590;-86
2023/05/11 03:59:21;;;;;;;;;3.25;2.25;;;;;23.05;44.15;100945.69;5074079;27;69060;-83
2023/05/11 04:01:50;;;;;;;;;4.75;2.00;;;;;23.09;44.22;100957.84;5055889;28;46602;-83
2023/05/11 04:04:15;;;;;;;;;0.50;0.50;;;;;23.08;44.57;100961.47;5058965;28;45525;-84
2023/05/11 04:06:41;;;;;;;;;0.25;0.25;;;;;23.05;44.28;100948.34;5066136;27;65103;-83
2023/05/11 04:09:06;;;;;;;;;0.25;0.25;;;;;23.09;44.41;100957.84;5056091;28;63758;-82
2023/05/11 04:11:35;;;;;;;;;1.00;1.00;;;;;23.06;44.33;100956.25;5072038;27;52014;-82
2023/05/11 04:14:00;;;;;;;;;1.00;0.50;;;;;23.06;44.66;100952.72;5071220;27;45376;-82
2023/05/11 04:16:26;;;;;;;;;0.25;0.25;;;;;23.09;44.09;100960.50;5068495;28;45462;-82
2023/05/11 04:18:51;;;;;;;;;0.75;0.25;;;;;23.09;44.41;100952.50;5074952;27;45455;-83
2023/05/11 04:21:16;;;;;;;;;0.25;0.25;;;;;23.07;44.40;100957.09;5057669;28;47652;-82
2023/05/11 04:23:42;;;;;;;;;1.00;1.00;;;;;23.07;44.75;100955.28;5064073;28;48719;-83
2023/05/11 04:26:07;;;;;;;;;0.00;0.00;;;;;23.07;44.22;100963.28;5066101;27;48647;-82
2023/05/11 04:28:32;;;;;;;;;0.00;0.00;;;;;23.05;44.43;100954.53;5064510;28;45441;-86
2023/05/11 04:30:58;;;;;;;;;0.50;0.50;;;;;23.08;44.41;100956.97;5068781;27;76642;-85
2023/05/11 04:33:23;;;;;;;;;1.50;0.25;;;;;23.10;44.54;100959.53;5062282;27;63065;-86
2023/05/11 04:35:53;;;;;;;;;0.75;0.25;;;;;23.09;44.08;100964.03;5070464;28;45417;-83
2023/05/11 04:38:19;;;;;;;;;1.50;0.25;;;;;23.07;44.36;100957.97;5070537;27;45621;-82
2023/05/11 04:40:45;;;;;;;;;1.00;0.25;;;;;23.09;44.20;100961.34;5069612;27;46269;-83
2023/05/11 04:43:11;;;;;;;;;1.75;1.25;;;;;23.07;44.42;100955.28;5063022;27;45536;-83
2023/05/11 04:45:36;;;;;;;;;0.25;0.00;;;;;23.09;44.60;100955.19;5067434;28;45427;-83
2023/05/11 04:48:01;;;;;;;;;1.00;1.00;;;;;23.07;44.12;100959.75;5053378;28;64211;-83
2023/05/11 04:50:27;;;;;;;;;1.00;0.25;;;;;23.09;44.10;100966.69;5074458;27;45310;-83
2023/05/11 04:52:52;;;;;;;;;1.00;1.00;;;;;23.06;44.51;100956.25;5068300;27;45419;-83
2023/05/11 04:55:17;;;;;;;;;0.00;0.00;;;;;;;;5076405;27;63059;-82
2023/05/11 04:57:43;;;;;;;;;1.25;0.25;;;;;23.07;44.48;100965.97;5064889;28;45444;-83
2023/05/11 05:00:09;;;;;;;;;0.25;0.25;;;;;23.09;44.46;100965.84;5078000;27;68793;-82
2023/05/11 05:02:34;;;;;;;;;0.25;0.00;;;;;23.03;44.35;100960.94;5066160;27;45348;-82
2023/05/11 05:04:59;;;;;;;;;4.00;0.25;;;;;23.09;44.36;100972.03;5058780;28;45772;-81
2023/05/11 05:07:25;;;;;;;;;1.50;0.25;;;;;23.03;43.74;100961.78;5072119;27;45482;-82
2023/05/11 05:09:50;;;;;;;;;0.25;0.25;;;;;23.06;44.43;100966.91;5062944;28;46212;-80
2023/05/11 05:12:16;;;;;;;;;2.00;0.00;;;;;23.02;44.59;100954.75;5051637;28;58513;-81
2023/05/11 05:14:41;;;;;;;;;0.25;0.25;;;;;23.07;43.88;100968.63;5066142;27;45516;-81
2023/05/11 05:17:06;;;;;;;;;0.00;0.00;;;;;23.06;44.48;100972.25;5063012;28;72863;-80
2023/05/11 05:19:32;;;;;;;;;0.25;0.25;;;;;23.09;44.23;100977.38;5067306;28;45510;-78
2023/05/11 05:21:57;;;;;;;;;2.25;0.25;;;;;23.07;43.93;100976.66;5066931;27;56035;-85
2023/05/11 05:24:22;;;;;;;;;2.50;0.25;;;;;23.07;44.04;100978.44;5057837;28;45864;-83
2023/05/11 05:26:48;;;;;;;;;2.00;0.25;;;;;23.07;43.96;100990.00;5071773;27;54483;-88
2023/05/11 05:29:13;;;;;;;;;1.75;0.25;;;;;23.03;44.25;100984.97;5064092;28;61893;-79
2023/05/11 05:31:38;;;;;;;;;1.75;1.75;;;;;;;;5053852;28;46207;-81
2023/05/11 05:34:04;;;;;;;;;1.67;1.67;;;;;23.02;44.55;100992.13;5067434;28;45363;-78
2023/05/11 05:36:30;;;;;;;;;3.25;3.25;;;;;23.03;44.37;100992.97;5048728;28;45479;-80
2023/05/11 05:38:55;;;;;;;;;4.25;4.25;;;;;23.00;44.30;100998.53;5065079;27;46924;-80
2023/05/11 05:41:21;;;;;;;;;5.00;4.00;;;;;22.96;43.68;100994.41;5063221;27;58108;-79
2023/05/11 05:43:47;;;;;;;;;3.75;3.75;;;;;22.90;43.59;100993.03;5050940;27;45491;-80
2023/05/11 05:46:13;;;;;;;;;6.25;4.00;;;;;22.89;43.66;101000.19;5067860;27;45449;-80
2023/05/11 05:48:38;;;;;;;;;7.75;6.25;;;;;22.86;43.36;101000.44;5060636;28;45510;-81
2023/05/11 05:51:04;;;;;;;;;20.25;17.75;;;;;22.83;43.10;101000.66;5068452;27;60382;-79
2023/05/11 05:53:29;;;;;;;;;18.75;18.25;;;;;22.81;43.64;100999.06;5053861;28;45406;-83
2023/05/11 05:55:54;;;;;;;;;17.25;14.75;;;;;22.68;43.37;100991.09;5056875;28;45364;-76
2023/05/11 05:58:20;;;;;;;;;10.00;8.25;;;;;22.70;43.35;101003.38;5059091;28;47491;-77
2023/05/11 06:00:45;;;;;;;;;7.75;7.25;;;;;22.66;42.98;101006.38;5074033;27;45549;-78
2023/05/11 06:03:11;;;;;;;;;8.25;6.25;;;;;22.59;42.51;101005.13;5059598;28;45617;-80
2023/05/11 06:05:36;;;;;;;;;6.00;6.00;;;;;22.58;43.16;101006.13;5082589;27;45378;-78
2023/05/11 06:08:01;;;;;;;;;8.75;5.25;;;;;22.56;42.71;101003.56;5066811;27;45606;-75
2023/05/11 06:10:27;;;;;;;;;7.25;5.00;;;;;22.52;42.67;101010.06;5063258;27;45453;-79
2023/05/11 06:12:52;;;;;;;;;5.00;5.00;;;;;22.48;42.78;101014.75;5075287;28;55427;-79
2023/05/11 06:15:17;;;;;;;;;12.50;10.75;;;;;22.43;42.66;101008.91;5059119;27;73260;-80
2023/05/11 06:17:43;;;;;;;;;10.50;6.25;;;;;22.40;42.46;101013.63;5058970;28;53464;-76
2023/05/11 06:20:08;;;;;;;;;7.75;6.25;;;;;22.37;42.88;101020.88;5067723;27;60007;-73
2023/05/11 06:22:34;;;;;;;;;6.75;6.00;;;;;22.35;42.97;101017.47;5076420;27;45953;-80
2023/05/11 06:24:59;;;;;;;;;8.00;6.50;;;;;22.35;42.76;101020.13;5083553;27;45446;-76
2023/05/11 06:27:25;;;;;;;;;6.75;4.50;;;;;22.37;42.64;101014.69;5074821;28;66013;-83
2023/05/11 06:29:50;;;;;;;;;9.50;7.00;;;;;22.36;43.04;101016.53;5052019;28;66397;-84
2023/05/11 06:32:16;;;;;;;;;6.25;5.25;;;;;22.38;43.18;101019.06;5074234;27;45318;-79
2023/05/11 06:34:41;;;;;;;;;7.25;6.25;;;;;22.42;43.39;101025.88;5076174;27;45718;-82
2023/05/11 06:37:06;;;;;;;;;6.25;4.25;;;;;22.41;43.60;101026.84;5067897;28;60568;-81
2023/05/11 06:39:38;;;;;;;;;5.25;4.25;;;;;22.46;43.35;101034.53;5074111;27;45415;-78
2023/05/11 06:42:04;;;;;;;;;5.75;5.50;;;;;22.47;43.23;101033.53;5087770;27;45495;-79
2023/05/11 06:44:29;;;;;;;;;6.25;6.25;;;;;22.44;43.63;101020.44;5067106;27;46514;-80
2023/05/11 06:46:55;;;;;;;;;6.50;5.00;;;;;22.49;43.65;101023.63;5054112;28;46913;-80
2023/05/11 06:49:20;;;;;;;;;6.50;6.00;;;;;22.53;43.49;101030.44;5062662;27;45379;-80
2023/05/11 06:51:46;;;;;;;;;6.50;4.75;;;;;22.54;43.82;101030.34;5073866;27;52737;-78
2023/05/11 06:54:11;;;;;;;;;6.25;4.25;;;;;22.56;43.78;101027.56;5061864;28;74029;-78
2023/05/11 06:56:36;;;;;;;;;5.75;4.00;;;;;22.58;43.72;101027.44;5074193;27;57184;-70
2023/05/11 06:59:02;;;;;;;;;6.25;5.00;;;;;22.62;43.82;101032.44;5074803;27;45364;-69
2023/05/11 07:01:27;;;;;;;;;5.00;5.00;;;;;22.61;44.00;101020.06;5068367;27;45424;-69
2023/05/11 07:03:56;;;;;;;;;7.50;4.25;;;;;22.66;43.85;101025.91;5063035;27;45380;-70
2023/05/11 07:06:21;;;;;;;;;6.00;4.25;;;;;22.62;43.95;101016.44;5063669;28;46188;-70
2023/05/11 07:08:47;;;;;;;;;4.00;3.25;;;;;22.68;43.75;101018.66;5075547;28;71283;-74
2023/05/11 07:11:14;;;;;;;;;3.75;3.25;;;;;22.70;44.10;101027.41;5088506;27;45500;-69
2023/05/11 07:13:40;;;;;;;;;5.00;5.00;;;;;22.77;44.32;101025.13;5067963;28;45403;-70
2023/05/11 07:16:05;;;;;;;;;4.00;3.25;;;;;22.79;44.15;101027.66;5053833;28;46690;-70
2023/05/11 07:18:30;;;;;;;;;3.75;3.75;;;;;22.80;43.72;101024.88;5067856;28;45453;-72
2023/05/11 07:20:56;;;;;;;;;2.25;2.25;;;;;22.82;44.00;101020.28;5057012;28;63206;-74
2023/05/11 07:23:21;;;;;;;;;6.00;2.50;;;;;22.84;44.38;101022.84;5061851;28;45559;-71
2023/05/11 07:25:46;;;;;;;;;3.75;3.50;;;;;22.86;44.03;101018.22;5074476;28;62721;-71
2023/05/11 07:28:12;;;;;;;;;3.50;3.50;;;;;22.88;44.05;101025.19;5065853;28;45389;-71
2023/05/11 07:30:37;;;;;;;;;4.25;4.25;;;;;22.90;43.84;101025.91;5074860;27;45611;-72
2023/05/11 07:33:03;;;;;;;;;3.00;3.00;;;;;22.92;43.90;101023.97;5062801;28;45649;-71
2023/05/11 07:35:28;;;;;;;;;2.50;2.00;;;;;22.95;44.21;101020.25;5062244;28;46199;-71
2023/05/11 07:37:54;;;;;;;;;5.50;3.50;;;;;22.96;44.30;101026.41;5059869;28;45462;-74
2023/05/11 07:40:19;;;;;;;;;1.75;1.75;;;;;22.96;43.82;101027.25;5067806;27;45737;-72
2023/05/11 07:42:44;;;;;;;;;2.25;2.25;;;;;22.97;43.77;101028.97;5061590;28;45457;-73
2023/05/11 07:45:10;;;;;;;;;1.75;1.75;;;;;22.99;44.09;101019.03;5068470;28;73460;-69
2023/05/11 07:47:35;;;;;;;;;3.25;3.25;;;;;23.02;44.38;101028.63;5071534;27;46352;-71
2023/05/11 07:50:01;;;;;;;;;3.50;2.25;;;;;23.01;44.24;101032.28;5045415;28;45668;-71
2023/05/11 07:52:26;;;;;;;;;2.25;2.00;;;;;23.03;44.12;101031.19;5057988;28;45449;-70
2023/05/11 07:54:51;;;;;;;;;4.75;2.50;;;;;23.05;44.24;101031.09;5074999;27;74185;-71
2023/05/11 07:57:17;;;;;;;;;5.00;3.75;;;;;23.06;44.24;101027.47;5077424;27;67328;-72
2023/05/11 07:59:43;;;;;;;;;4.00;2.00;;;;;23.07;44.08;101035.38;5046073;28;45477;-75
2023/05/11 08:02:08;;;;;;;;;2.75;2.50;;;;;;;;5072675;27;53212;-74
2023/05/11 08:04:35;;;;;;;;;3.33;2.33;;;;;23.05;44.05;101028.44;5064528;28;45411;-74
2023/05/11 08:07:00;;;;;;;;;2.50;2.50;;;;;23.05;43.95;101023.94;5084396;27;45871;-71
2023/05/11 08:09:25;;;;;;;;;3.00;3.00;;;;;23.08;44.06;101031.72;5073128;28;46067;-70
2023/05/11 08:11:52;;;;;;;;;1.75;1.75;;;;;23.07;44.35;101026.50;5071448;27;45531;-71
2023/05/11 08:14:17;;;;;;;;;3.75;2.25;;;;;23.10;44.24;101035.13;5048003;28;47841;-75
2023/05/11 08:16:42;;;;;;;;;4.00;3.25;;;;;23.10;44.17;101024.44;5072073;27;45372;-75
2023/05/11 08:19:08;;;;;;;;;3.25;3.25;;;;;23.10;43.71;101026.25;5062625;28;45551;-73
2023/05/11 08:21:33;;;;;;;;;2.00;2.00;;;;;23.11;44.04;101026.16;5071650;27;51372;-72
2023/05/11 08:23:58;;;;;;;;;2.25;2.00;;;;;23.15;43.94;101025.94;5077598;28;47802;-73
2023/05/11 08:26:24;;;;;;;;;2.00;2.00;;;;;23.11;44.11;101018.16;5077274;27;45568;-72
2023/05/11 08:28:51;;;;;;;;;3.50;2.25;;;;;23.16;44.10;101025.81;5058946;28;65033;-79
2023/05/11 08:31:17;;;;;;;;;3.25;3.25;;;;;23.15;43.98;101021.44;5056331;28;45746;-84
2023/05/11 08:33:43;;;;;;;;;2.25;2.25;;;;;23.19;44.07;101024.72;5066014;27;47918;-76
2023/05/11 08:36:09;;;;;;;;;1.50;1.50;;;;;23.25;43.98;101035.78;5073965;28;45328;-74
2023/05/11 08:38:35;;;;;;;;;3.25;2.25;;;;;23.25;44.06;101027.78;5064884;28;45504;-73
2023/05/11 08:41:01;;;;;;;;;2.75;2.25;;;;;23.27;44.03;101027.69;5067545;27;45415;-75
2023/05/11 08:43:28;;;;;;;;;4.25;1.75;;;;;23.27;43.88;101025.00;5071642;28;45498;-74
2023/05/11 08:45:56;;;;;;;;;2.75;2.75;;;;;23.27;43.87;101015.16;5066466;28;45481;-75
2023/05/11 08:48:22;;;;;;;;;4.25;2.25;;;;;23.29;43.70;101023.06;5055390;28;45287;-73
2023/05/11 08:50:48;;;;;;;;;6.75;3.75;;;;;23.30;43.75;101022.94;5076214;27;45444;-73
2023/05/11 08:53:13;;;;;;;;;7.00;3.50;;;;;23.28;43.94;101024.03;5073624;28;70125;-73
2023/05/11 08:55:40;;;;;;;;;4.25;2.75;;;;;23.28;43.72;101024.91;5074405;28;63323;-73
2023/05/11 08:58:06;;;;;;;;;1.50;1.50;;;;;23.30;44.07;101025.63;5077377;28;45416;-72
2023/05/11 09:00:32;;;;;;;;;5.50;1.75;;;;;23.29;43.96;101018.56;5077128;27;45749;-74
2023/05/11 09:02:58;;;;;;;;;4.25;3.25;;;;;23.30;43.93;101012.28;5059525;28;47926;-74
2023/05/11 09:05:25;;;;;;;;;2.25;2.25;;;;;23.31;43.70;101018.44;5083885;27;45629;-71
2023/05/11 09:07:55;;;;;;;;;3.00;1.00;;;;;23.31;43.94;101021.13;5060640;28;45483;-71
2023/05/11 09:10:21;;;;;;;;;3.50;2.75;;;;;23.28;43.96;101011.53;5060487;28;45558;-73
2023/05/11 09:12:46;;;;;;;;;1.75;1.75;;;;;23.29;44.04;101013.22;5073946;27;47836;-72
2023/05/11 09:15:12;;;;;;;;;3.00;2.00;;;;;23.28;43.88;101011.53;5062645;27;68269;-72
2023/05/11 09:17:37;;;;;;;;;3.25;2.75;;;;;23.29;43.91;101023.91;5077016;28;45426;-71
2023/05/11 09:20:04;;;;;;;;;4.75;2.75;;;;;23.29;43.44;101029.25;5085099;27;73181;-71
2023/05/11 09:22:34;;;;;;;;;2.25;2.00;;;;;23.29;43.46;101020.41;5082180;27;45285;-72
2023/05/11 09:25:02;;;;;;;;;3.50;2.50;;;;;23.28;43.93;101030.22;5051298;28;45825;-75
2023/05/11 09:27:28;;;;;;;;;3.50;3.50;;;;;23.26;44.14;101026.81;5074435;28;45610;-74
2023/05/11 09:29:53;;;;;;;;;5.00;2.25;;;;;23.26;43.99;101016.13;5072667;28;45380;-72
2023/05/11 09:32:19;;;;;;;;;3.00;1.75;;;;;23.24;44.11;101015.38;5075306;27;46405;-73
2023/05/11 09:34:44;;;;;;;;;2.50;1.25;;;;;23.20;43.69;101010.41;5062962;28;45351;-72
2023/05/11 09:37:16;;;;;;;;;4.00;3.00;;;;;23.27;43.72;101014.31;5066385;28;61378;-74
2023/05/11 09:39:41;;;;;;;;;2.75;2.00;;;;;23.26;43.61;101015.28;5077166;27;45623;-72
2023/05/11 09:42:25;;;;;;;;;4.00;2.25;;;;;23.28;44.01;101019.56;5087444;27;75313;-70
2023/05/11 09:44:51;;;;;;;;;5.00;3.25;;;;;23.26;43.87;101015.28;5074744;27;46681;-68
2023/05/11 09:47:19;;;;;;;;;5.00;2.00;;;;;23.29;43.63;101015.91;5072359;27;45557;-71
2023/05/11 09:49:46;;;;;;;;;2.25;2.00;;;;;23.29;43.67;101017.72;5068125;27;45499;-70
2023/05/11 09:52:13;;;;;;;;;2.25;2.25;;;;;23.31;43.86;101023.78;5070469;27;47208;-71
2023/05/11 09:54:42;;;;;;;;;2.25;2.25;;;;;23.32;43.86;101017.50;5068402;28;45433;-69
2023/05/11 09:57:27;;;;;;;;;4.50;2.25;;;;;23.33;43.80;101010.31;5068007;27;45518;-71
2023/05/11 09:59:55;;;;;;;;;3.25;2.00;;;;;23.35;44.12;101019.91;5071043;27;45919;-71
2023/05/11 10:02:24;;;;;;;;;3.00;2.25;;;;;23.38;43.80;101018.84;5078282;27;47277;-71
2023/05/11 10:04:51;;;;;;;;;2.25;2.25;;;;;23.37;43.90;101011.78;5054354;28;45409;-71
2023/05/11 10:07:27;;;;;;;;;2.00;2.00;;;;;23.39;43.97;101012.50;5054972;28;45467;-71
2023/05/11 10:09:54;;;;;;;;;4.00;3.00;;;;;23.39;43.82;101010.72;5059514;27;45568;-71
2023/05/11 10:12:21;;;;;;;;;3.25;2.25;;;;;23.41;43.96;101010.56;5079565;27;46054;-70
2023/05/11 10:14:48;;;;;;;;;3.50;2.50;;;;;23.39;43.96;101005.38;5060153;28;45292;-71
2023/05/11 10:17:15;;;;;;;;;3.50;2.25;;;;;23.39;43.63;101002.69;5073406;27;45330;-71
2023/05/11 10:19:41;;;;;;;;;5.00;2.50;;;;;23.40;43.86;101007.06;5066628;27;45517;-71
2023/05/11 10:22:06;;;;;;;;;3.50;3.25;;;;;23.38;43.61;101002.81;5071941;27;46083;-71
2023/05/11 10:24:33;;;;;;;;;2.25;2.25;;;;;23.40;44.17;101004.38;5079054;27;45505;-71
2023/05/11 10:27:00;;;;;;;;;5.00;3.25;;;;;23.36;43.68;101000.25;5071638;27;45490;-71
2023/05/11 10:29:26;;;;;;;;;5.50;2.25;;;;;23.34;43.69;100999.53;5085130;27;45431;-71
2023/05/11 10:31:53;;;;;;;;;4.00;3.00;;;;;23.38;43.93;101011.66;5076197;27;46091;-71
2023/05/11 10:34:18;;;;;;;;;2.75;2.00;;;;;23.39;44.01;100999.16;5071500;27;45387;-70
2023/05/11 10:36:45;;;;;;;;;2.00;2.00;;;;;23.34;43.91;100993.31;5072876;27;63070;-71
2023/05/11 10:39:10;;;;;;;;;5.75;3.50;;;;;23.36;43.83;100999.41;5069754;27;64841;-71
2023/05/11 10:41:38;;;;;;;;;4.25;2.75;;;;;23.38;43.46;101001.00;5071460;27;60414;-71
2023/05/11 10:44:33;;;;;;;;;3.25;3.25;;;;;23.37;43.74;100999.28;5072475;27;45338;-71
2023/05/11 10:47:01;;;;;;;;;3.00;3.00;;;;;23.35;43.54;100997.69;5060326;28;45487;-70
2023/05/11 10:49:51;;;;;;;;;1.75;1.50;;;;;23.34;43.74;100999.53;5069895;28;45608;-70
2023/05/11 10:52:34;;;;;;;;;4.00;2.75;;;;;23.34;43.70;100990.66;5077411;27;46369;-71
2023/05/11 10:55:08;;;;;;;;;3.25;3.00;;;;;23.33;43.90;100995.16;5080944;27;45282;-71
2023/05/11 10:58:01;;;;;;;;;3.75;3.75;;;;;23.33;43.40;100989.81;5065989;28;45399;-71
2023/05/11 11:00:54;;;;;;;;;4.00;4.00;;;;;23.30;43.28;100990.91;5064990;27;45499;-71
2023/05/11 11:03:19;;;;;;;;;4.00;4.00;;;;;23.30;43.78;100993.56;5072230;27;46273;-71
2023/05/11 11:05:46;;;;;;;;;5.75;2.25;;;;;23.26;43.64;100985.91;5070276;27;45379;-71
2023/05/11 11:08:12;;;;;;;;;4.50;3.25;;;;;23.23;43.63;100986.13;5072410;28;45442;-71
2023/05/11 11:10:45;;;;;;;;;4.25;2.50;;;;;23.25;43.58;100985.06;5071700;27;45319;-71
2023/05/11 11:13:11;;;;;;;;;6.00;3.75;;;;;23.25;43.37;100976.22;5080270;27;45501;-71
2023/05/11 11:15:55;;;;;;;;;3.25;3.00;;;;;23.25;43.26;100984.22;5051161;27;45903;-71
2023/05/11 11:18:25;;;;;;;;;3.75;3.50;;;;;23.24;43.74;100979.84;5070846;27;45299;-71
2023/05/11 11:20:52;;;;;;;;;3.25;3.25;;;;;23.21;43.56;100980.06;5066621;27;45481;-71
2023/05/11 11:23:42;;;;;;;;;2.75;2.25;;;;;23.20;43.98;100981.88;5085181;27;45487;-71
2023/05/11 11:26:09;;;;;;;;;3.50;2.50;;;;;23.20;43.22;100975.72;5073984;27;45393;-71
2023/05/11 11:28:52;;;;;;;;;4.25;2.75;;;;;23.20;43.42;100981.06;5072102;28;45336;-71
2023/05/11 11:31:22;;;;;;;;;6.25;3.00;;;;;23.19;43.51;100982.00;5072079;27;45336;-71